Time;durP1;ratioP1;P1;durP2;ratioP2;P2;SDS_P1;SDS_P2;PMS_P1;PMS_P2;Temp;Humidity;BMP_temperature;BMP_pressure;BME280_temperature;BME280_humidity;BME280_pressure;Samples;Min_cycle;Max_cycle;Signal;HPM_P1;HPM_P2
2021/11/18 00:00:48;;;;;;;;;40.25;30.50;;;;;10.37;73.00;102682.56;4923539;28;46525;-58
2021/11/18 00:03:15;;;;;;;;;38.75;31.50;;;;;10.36;72.77;102683.47;4923495;28;45354;-58
2021/11/18 00:05:40;;;;;;;;;33.00;27.00;;;;;10.37;72.58;102685.22;4923533;28;45459;-58
2021/11/18 00:08:07;;;;;;;;;30.50;25.00;;;;;10.36;72.85;102683.47;4923383;28;45295;-59
2021/11/18 00:10:39;;;;;;;;;23.75;16.75;;;;;10.33;73.01;102685.28;4923173;28;46327;-59
2021/11/18 00:13:09;;;;;;;;;33.25;32.00;;;;;10.30;72.90;102682.72;4906189;28;45311;-59
2021/11/18 00:15:35;;;;;;;;;37.50;32.50;;;;;10.26;73.11;102686.34;4923396;28;45274;-59
2021/11/18 00:18:04;;;;;;;;;38.50;33.25;;;;;10.23;72.63;102686.44;4922287;28;45423;-59
2021/11/18 00:20:34;;;;;;;;;43.50;33.25;;;;;10.21;72.65;102690.00;4923429;28;45367;-59
2021/11/18 00:23:00;;;;;;;;;36.50;30.25;;;;;10.19;73.16;102691.78;4922869;28;45316;-59
2021/11/18 00:25:26;;;;;;;;;39.50;29.75;;;;;10.17;72.89;102691.81;4923448;28;45221;-59
2021/11/18 00:27:52;;;;;;;;;46.00;30.50;;;;;10.15;72.76;102688.38;4924853;28;45535;-59
2021/11/18 00:30:19;;;;;;;;;35.75;27.75;;;;;10.13;73.21;102684.94;4923051;28;45352;-59
2021/11/18 00:32:45;;;;;;;;;38.50;31.00;;;;;10.12;73.11;102680.56;4922988;28;45410;-59
2021/11/18 00:35:15;;;;;;;;;35.75;27.75;;;;;10.12;72.86;102671.81;4923065;28;45802;-59
2021/11/18 00:37:42;;;;;;;;;31.75;31.75;;;;;10.08;73.08;102663.97;4924606;28;45542;-59
2021/11/18 00:40:08;;;;;;;;;24.25;22.75;;;;;10.06;73.21;102662.28;4923717;28;45451;-59
2021/11/18 00:42:34;;;;;;;;;33.75;28.25;;;;;10.03;72.91;102655.34;4923086;28;45311;-59
2021/11/18 00:45:00;;;;;;;;;38.75;28.00;;;;;10.00;73.05;102658.03;4923493;28;45565;-59
2021/11/18 00:47:26;;;;;;;;;36.00;28.25;;;;;9.97;73.27;102652.88;4923313;28;45321;-59
2021/11/18 00:49:52;;;;;;;;;36.25;26.75;;;;;9.97;72.88;102655.50;4923127;28;45541;-59
2021/11/18 00:52:19;;;;;;;;;34.50;25.75;;;;;9.94;72.72;102649.44;4922809;28;45329;-60
2021/11/18 00:54:45;;;;;;;;;31.00;26.50;;;;;9.92;73.12;102656.50;4921764;28;45257;-59
2021/11/18 00:57:10;;;;;;;;;35.50;27.25;;;;;9.91;72.89;102642.47;4923171;28;45427;-59
2021/11/18 00:59:36;;;;;;;;;30.00;25.00;;;;;9.90;73.38;102651.28;4923089;28;45863;-59
2021/11/18 01:02:02;;;;;;;;;29.25;25.25;;;;;9.90;73.35;102651.28;4923015;28;45169;-59
2021/11/18 01:04:29;;;;;;;;;29.00;24.25;;;;;9.91;73.38;102646.88;4923419;28;45339;-59
2021/11/18 01:06:56;;;;;;;;;39.25;28.75;;;;;9.90;72.82;102650.44;4905912;28;45625;-59
2021/11/18 01:09:22;;;;;;;;;31.25;22.75;;;;;9.87;73.03;102661.88;4922801;28;45272;-58
2021/11/18 01:11:48;;;;;;;;;24.50;20.75;;;;;9.86;73.01;102662.78;4905698;28;45350;-59
2021/11/18 01:14:17;;;;;;;;;36.75;29.50;;;;;9.85;73.39;102668.97;4923170;28;45401;-59
2021/11/18 01:16:45;;;;;;;;;31.25;26.00;;;;;9.84;73.95;102663.75;4922933;28;45351;-59
2021/11/18 01:19:11;;;;;;;;;28.25;22.00;;;;;9.83;73.41;102675.19;4922673;28;45478;-59
2021/11/18 01:21:39;;;;;;;;;37.25;28.25;;;;;9.81;73.48;102688.38;4922460;28;45673;-59
2021/11/18 01:24:06;;;;;;;;;32.25;24.50;;;;;9.78;73.46;102686.66;4923020;28;45272;-59
2021/11/18 01:26:31;;;;;;;;;30.75;25.25;;;;;9.75;73.81;102670.97;4922967;28;45582;-58
2021/11/18 01:29:00;;;;;;;;;32.25;29.00;;;;;9.74;73.27;102679.78;4922721;28;45329;-59
2021/11/18 01:31:25;;;;;;;;;39.00;31.50;;;;;9.73;73.64;102677.19;4922657;28;45301;-59
2021/11/18 01:33:52;;;;;;;;;25.25;24.25;;;;;9.70;73.93;102669.34;4922893;28;45468;-59
2021/11/18 01:36:17;;;;;;;;;35.75;28.25;;;;;9.68;73.96;102672.00;4922524;28;45410;-59
2021/11/18 01:38:43;;;;;;;;;33.00;27.75;;;;;9.68;73.99;102664.13;4916505;28;46014;-58
2021/11/18 01:41:13;;;;;;;;;33.75;28.50;;;;;9.67;73.97;102680.81;4906200;28;45743;-59
2021/11/18 01:43:46;;;;;;;;;31.50;27.75;;;;;9.67;73.70;102680.81;4926078;28;45740;-59
2021/11/18 01:46:18;;;;;;;;;34.00;27.50;;;;;9.66;73.75;102686.97;4925980;28;45471;-59
2021/11/18 01:48:50;;;;;;;;;34.75;28.25;;;;;9.65;73.83;102682.63;4925775;28;45538;-59
2021/11/18 01:51:17;;;;;;;;;34.00;29.75;;;;;9.63;73.89;102694.06;4925754;28;45332;-58
2021/11/18 01:53:45;;;;;;;;;35.75;26.00;;;;;9.60;73.22;102694.16;4925498;28;45257;-59
2021/11/18 01:56:18;;;;;;;;;34.00;28.25;;;;;9.57;73.34;102695.09;4925964;28;45519;-59
2021/11/18 01:58:48;;;;;;;;;32.75;28.25;;;;;9.56;72.74;102698.63;4908730;28;45380;-59
2021/11/18 02:01:14;;;;;;;;;44.50;28.75;;;;;9.54;73.62;102692.53;4925654;28;45372;-59
2021/11/18 02:03:39;;;;;;;;;35.25;27.50;;;;;9.54;73.21;102687.25;4925682;28;45463;-59
2021/11/18 02:06:16;;;;;;;;;32.00;28.25;;;;;9.52;73.21;102689.06;4925545;28;45529;-59
2021/11/18 02:08:42;;;;;;;;;27.75;24.75;;;;;9.50;72.87;102688.25;4925355;28;45461;-59
2021/11/18 02:11:28;;;;;;;;;38.50;28.00;;;;;9.49;72.82;102694.41;4925569;28;45397;-58
2021/11/18 02:13:57;;;;;;;;;21.25;17.75;;;;;9.47;73.27;102691.81;4925480;28;45438;-60
2021/11/18 02:16:24;;;;;;;;;34.25;25.75;;;;;9.47;72.81;102686.53;4925454;28;45237;-59
2021/11/18 02:18:50;;;;;;;;;34.50;30.00;;;;;9.46;73.10;102691.84;4925328;28;46246;-59
2021/11/18 02:21:16;;;;;;;;;30.75;25.00;;;;;9.44;72.98;102688.38;4924917;28;45284;-59
2021/11/18 02:23:49;;;;;;;;;30.50;26.75;;;;;9.43;73.01;102687.53;4925328;28;45260;-59
2021/11/18 02:26:16;;;;;;;;;28.00;26.25;;;;;9.42;72.74;102692.84;4925219;28;45606;-60
2021/11/18 02:28:44;;;;;;;;;31.75;27.50;;;;;9.42;73.25;102695.47;4914238;28;45352;-59
2021/11/18 02:31:42;;;;;;;;;42.25;33.00;;;;;9.40;72.88;102697.25;4925149;28;45539;-59
2021/11/18 02:34:18;;;;;;;;;27.75;23.50;;;;;9.39;73.46;102698.16;4922451;28;45324;-59
2021/11/18 02:36:44;;;;;;;;;36.50;26.50;;;;;9.35;73.33;102693.88;4925063;28;45405;-60
2021/11/18 02:39:10;;;;;;;;;31.50;27.00;;;;;9.31;73.66;102697.44;4907875;28;45371;-59
2021/11/18 02:41:38;;;;;;;;;30.00;28.50;;;;;9.27;73.36;102704.56;4923709;28;45290;-59
2021/11/18 02:44:05;;;;;;;;;33.50;29.00;;;;;9.21;73.35;102710.81;4925084;28;45240;-60
2021/11/18 02:46:31;;;;;;;;;36.50;30.75;;;;;9.17;73.38;102696.03;4925235;28;45471;-59
2021/11/18 02:48:57;;;;;;;;;32.75;28.50;;;;;9.16;73.58;102696.91;4924721;28;45368;-60
2021/11/18 02:51:22;;;;;;;;;35.75;25.50;;;;;9.15;74.23;102683.78;4924335;28;45193;-60
2021/11/18 02:53:48;;;;;;;;;39.75;26.25;;;;;9.13;73.98;102696.09;4924499;28;45428;-60
2021/11/18 02:56:15;;;;;;;;;38.75;30.50;;;;;9.07;74.05;102706.75;4924861;28;45442;-60
2021/11/18 02:58:41;;;;;;;;;36.50;33.50;;;;;9.04;74.33;102710.31;4924606;28;45290;-59
2021/11/18 03:01:15;;;;;;;;;31.75;27.00;;;;;9.04;74.06;102717.34;4924690;28;45345;-59
2021/11/18 03:03:41;;;;;;;;;40.50;35.00;;;;;9.02;74.32;102712.13;4924671;28;45395;-60
2021/11/18 03:06:08;;;;;;;;;32.75;24.75;;;;;9.01;74.07;102710.41;4924525;28;45332;-59
2021/11/18 03:08:34;;;;;;;;;33.75;28.50;;;;;9.01;74.08;102713.03;4924242;28;45230;-60
2021/11/18 03:11:01;;;;;;;;;38.25;28.75;;;;;8.98;73.90;102720.94;4924626;28;45411;-59
2021/11/18 03:13:29;;;;;;;;;37.25;34.00;;;;;8.95;74.19;102721.91;4924667;28;45240;-60
2021/11/18 03:15:57;;;;;;;;;41.00;35.25;;;;;8.92;74.41;102723.69;4924733;28;45333;-61
2021/11/18 03:18:23;;;;;;;;;35.75;32.50;;;;;8.90;74.45;102721.09;4924299;28;45359;-59
2021/11/18 03:20:50;;;;;;;;;56.00;39.50;;;;;8.88;74.12;102720.28;4924332;28;45178;-59
2021/11/18 03:23:15;;;;;;;;;40.75;36.00;;;;;8.86;74.42;102714.19;4924154;28;45311;-59
2021/11/18 03:25:41;;;;;;;;;39.75;36.25;;;;;8.85;74.09;102717.72;4924522;28;45268;-59
2021/11/18 03:28:07;;;;;;;;;44.25;36.00;;;;;8.84;74.49;102718.59;4934912;28;45205;-59
2021/11/18 03:30:35;;;;;;;;;46.75;38.75;;;;;8.84;74.65;102723.84;4924161;28;45373;-59
2021/11/18 03:33:10;;;;;;;;;45.00;37.00;;;;;8.84;74.42;102715.97;4924345;28;45320;-59
2021/11/18 03:35:36;;;;;;;;;43.50;32.25;;;;;8.84;74.50;102725.63;4924516;28;45390;-59
2021/11/18 03:38:01;;;;;;;;;44.25;36.00;;;;;8.81;74.60;102721.31;4923080;28;45267;-60
2021/11/18 03:40:28;;;;;;;;;44.00;39.25;;;;;8.81;74.18;102717.81;4915797;28;45244;-59
2021/11/18 03:42:54;;;;;;;;;41.75;33.00;;;;;8.80;74.36;102708.19;4924190;28;45462;-59
2021/11/18 03:45:23;;;;;;;;;38.50;33.00;;;;;8.84;73.97;102707.22;4924299;28;45447;-59
2021/11/18 03:47:48;;;;;;;;;48.75;36.00;;;;;8.85;73.94;102714.25;4923748;28;45468;-59
2021/11/18 03:50:14;;;;;;;;;50.50;36.25;;;;;8.84;73.77;102717.75;4923878;28;45376;-59
2021/11/18 03:52:41;;;;;;;;;44.75;34.00;;;;;8.80;74.26;102722.19;4923745;28;45409;-59
2021/11/18 03:55:09;;;;;;;;;44.50;36.25;;;;;8.78;74.17;102728.41;4923955;28;45366;-59
2021/11/18 03:57:35;;;;;;;;;40.00;37.00;;;;;8.79;74.09;102732.75;4923704;28;46320;-59
2021/11/18 04:00:04;;;;;;;;;42.25;36.25;;;;;8.78;74.23;102731.03;4923799;28;45310;-59
2021/11/18 04:02:30;;;;;;;;;40.75;32.00;;;;;8.75;74.12;102739.81;4922986;28;45427;-59
2021/11/18 04:05:00;;;;;;;;;41.75;31.75;;;;;8.76;74.22;102736.28;4923963;28;45456;-59
2021/11/18 04:07:27;;;;;;;;;56.00;37.00;;;;;8.77;74.08;102732.78;4923614;28;46059;-59
2021/11/18 04:09:53;;;;;;;;;42.25;33.25;;;;;8.77;74.50;102737.16;4923434;28;45332;-59
2021/11/18 04:12:19;;;;;;;;;45.00;35.50;;;;;8.73;74.14;102736.34;4923892;28;45324;-59
2021/11/18 04:14:46;;;;;;;;;44.75;37.75;;;;;8.71;74.29;102742.53;4923696;28;45628;-59
2021/11/18 04:17:13;;;;;;;;;53.25;37.25;;;;;8.68;74.33;102752.19;4923762;28;45436;-59
2021/11/18 04:19:40;;;;;;;;;39.25;34.50;;;;;8.68;74.55;102754.81;4923507;28;45295;-59
2021/11/18 04:22:07;;;;;;;;;38.75;31.75;;;;;8.68;74.50;102753.97;4923552;28;45324;-60
2021/11/18 04:24:34;;;;;;;;;45.00;39.00;;;;;8.67;74.68;102758.34;4923438;28;45503;-59
2021/11/18 04:27:00;;;;;;;;;50.75;37.00;;;;;8.65;74.64;102760.16;4929009;28;45363;-59
2021/11/18 04:29:29;;;;;;;;;42.00;34.25;;;;;8.65;74.66;102756.66;4928370;28;45392;-59
2021/11/18 04:32:01;;;;;;;;;41.25;35.75;;;;;8.65;74.52;102756.66;4923526;28;45383;-59
2021/11/18 04:34:27;;;;;;;;;41.75;34.25;;;;;8.66;74.67;102761.88;4923441;28;45403;-59
2021/11/18 04:36:53;;;;;;;;;44.75;34.25;;;;;8.68;74.53;102761.84;4923173;28;45268;-59
2021/11/18 04:39:20;;;;;;;;;33.75;32.75;;;;;8.68;74.35;102760.06;4914886;28;45193;-60
2021/11/18 04:41:46;;;;;;;;;47.00;29.00;;;;;8.67;74.26;102766.22;4923350;28;45310;-60
2021/11/18 04:44:11;;;;;;;;;35.75;28.00;;;;;8.67;74.62;102771.50;4923642;28;45257;-59
2021/11/18 04:46:37;;;;;;;;;41.25;33.25;;;;;8.68;74.66;102774.97;4923177;28;45234;-60
2021/11/18 04:49:06;;;;;;;;;36.50;34.50;;;;;8.68;74.50;102773.22;4922942;28;45373;-60
2021/11/18 04:51:33;;;;;;;;;40.50;35.00;;;;;8.70;74.41;102783.72;4923211;28;45260;-59
2021/11/18 04:53:59;;;;;;;;;38.00;31.00;;;;;8.69;73.94;102782.00;4923028;28;45620;-60
2021/11/18 04:56:26;;;;;;;;;37.00;30.75;;;;;8.68;73.87;102783.72;4923056;28;45925;-59
2021/11/18 04:58:53;;;;;;;;;39.50;34.25;;;;;8.68;74.11;102791.59;4923141;28;45231;-60
2021/11/18 05:01:19;;;;;;;;;38.75;28.75;;;;;8.67;73.80;102784.63;4923066;28;45282;-60
2021/11/18 05:03:45;;;;;;;;;38.25;28.00;;;;;8.68;73.75;102790.75;4923038;28;45368;-59
2021/11/18 05:06:11;;;;;;;;;44.25;36.75;;;;;8.67;73.82;102794.25;4922766;28;45313;-59
2021/11/18 05:08:37;;;;;;;;;31.50;29.00;;;;;8.66;73.81;102780.28;4922643;28;45480;-60
2021/11/18 05:11:03;;;;;;;;;37.50;30.50;;;;;8.65;73.91;102786.41;4923108;28;45430;-59
2021/11/18 05:13:30;;;;;;;;;36.00;34.50;;;;;8.65;73.68;102788.19;4923833;28;45207;-59
2021/11/18 05:15:59;;;;;;;;;36.50;30.00;;;;;8.61;73.56;102783.88;4926224;28;45343;-59
2021/11/18 05:18:27;;;;;;;;;34.25;29.00;;;;;8.59;73.50;102789.16;4926063;28;45387;-60
2021/11/18 05:20:54;;;;;;;;;36.75;28.75;;;;;8.57;73.66;102785.69;4925881;28;45335;-60
2021/11/18 05:23:20;;;;;;;;;34.00;28.00;;;;;8.52;73.53;102784.91;4926090;28;45478;-59
2021/11/18 05:25:45;;;;;;;;;31.25;27.00;;;;;8.51;73.64;102787.56;4926116;28;45245;-59
2021/11/18 05:28:12;;;;;;;;;37.00;31.50;;;;;8.51;73.88;102787.56;4936868;28;45471;-59
2021/11/18 05:30:38;;;;;;;;;35.25;24.50;;;;;8.51;73.95;102790.19;4926124;28;45433;-59
2021/11/18 05:33:08;;;;;;;;;36.50;31.00;;;;;8.50;73.66;102791.94;4926081;28;45431;-58
2021/11/18 05:35:35;;;;;;;;;32.50;28.75;;;;;8.47;74.07;102788.53;4925940;28;45444;-58
2021/11/18 05:38:02;;;;;;;;;36.50;30.00;;;;;8.46;73.77;102792.06;4925296;28;45850;-59
2021/11/18 05:40:28;;;;;;;;;37.50;27.75;;;;;8.43;73.57;102792.94;4918389;28;45361;-59
2021/11/18 05:42:54;;;;;;;;;36.25;29.75;;;;;8.43;73.78;102798.19;4925789;28;45375;-58
2021/11/18 05:45:24;;;;;;;;;35.25;28.25;;;;;8.45;73.92;102795.53;4925735;28;46111;-58
2021/11/18 05:47:50;;;;;;;;;41.00;27.75;;;;;8.47;73.91;102799.03;4925617;28;45208;-58
2021/11/18 05:50:17;;;;;;;;;39.50;33.50;;;;;8.45;74.06;102796.41;4925825;28;45233;-58
2021/11/18 05:52:43;;;;;;;;;35.00;32.00;;;;;8.42;74.03;102801.72;4925612;28;45483;-58
2021/11/18 05:55:11;;;;;;;;;29.50;26.25;;;;;8.40;74.16;102793.00;4925490;28;45415;-58
2021/11/18 05:57:37;;;;;;;;;36.00;26.25;;;;;8.39;73.91;102797.41;4925553;28;45324;-59
2021/11/18 06:00:09;;;;;;;;;34.00;30.25;;;;;8.36;74.15;102802.69;4925927;28;45343;-59
2021/11/18 06:02:34;;;;;;;;;36.75;29.50;;;;;8.34;73.90;102811.47;4925669;28;45505;-58
2021/11/18 06:05:00;;;;;;;;;39.25;34.00;;;;;8.29;73.79;102813.28;4925530;28;46187;-58
2021/11/18 06:07:25;;;;;;;;;32.00;27.75;;;;;8.25;73.74;102817.72;4908308;28;45359;-58
2021/11/18 06:09:51;;;;;;;;;42.00;36.25;;;;;8.22;74.07;102815.16;4925386;28;45355;-58
2021/11/18 06:12:17;;;;;;;;;35.25;27.50;;;;;8.21;74.38;102816.03;4925448;28;45376;-58
2021/11/18 06:14:42;;;;;;;;;36.50;32.00;;;;;8.20;74.37;102819.56;4925056;28;46217;-58
2021/11/18 06:17:08;;;;;;;;;46.50;31.50;;;;;8.22;74.76;102816.94;4925435;28;45186;-58
2021/11/18 06:19:34;;;;;;;;;43.50;35.50;;;;;8.20;74.67;102822.19;4925518;28;45284;-58
2021/11/18 06:22:00;;;;;;;;;42.25;29.50;;;;;8.21;74.59;102816.03;4925294;28;45529;-58
2021/11/18 06:24:26;;;;;;;;;37.00;31.00;;;;;8.22;74.54;102822.19;4924993;28;45353;-58
2021/11/18 06:26:54;;;;;;;;;33.50;28.75;;;;;8.22;74.65;102822.19;4929281;28;45415;-59
2021/11/18 06:29:20;;;;;;;;;47.00;38.25;;;;;8.24;74.64;102828.25;4913200;28;45412;-59
2021/11/18 06:31:47;;;;;;;;;37.50;28.00;;;;;8.25;74.38;102816.88;4925276;28;45529;-59
2021/11/18 06:34:14;;;;;;;;;34.75;32.00;;;;;8.26;74.36;102827.34;4924546;28;45185;-58
2021/11/18 06:36:40;;;;;;;;;42.75;31.25;;;;;8.28;74.24;102827.31;4925141;28;45302;-57
2021/11/18 06:39:06;;;;;;;;;48.50;27.50;;;;;8.31;74.06;102830.75;4916573;28;45252;-59
2021/11/18 06:41:32;;;;;;;;;42.25;31.00;;;;;8.34;74.13;102832.47;4925350;28;45248;-59
2021/11/18 06:43:58;;;;;;;;;38.75;29.25;;;;;8.34;73.88;102840.34;4924823;28;45515;-58
2021/11/18 06:46:26;;;;;;;;;47.00;36.50;;;;;8.31;73.92;102833.38;4925052;28;45327;-61
2021/11/18 06:48:52;;;;;;;;;33.00;27.00;;;;;8.28;73.91;102830.78;4924800;28;45411;-58
2021/11/18 06:51:21;;;;;;;;;38.50;36.25;;;;;8.30;73.95;102829.03;4924866;28;45271;-58
2021/11/18 06:53:49;;;;;;;;;35.00;31.75;;;;;8.27;74.01;102834.31;4923590;28;45205;-57
2021/11/18 06:56:15;;;;;;;;;42.25;36.00;;;;;8.23;73.70;102837.91;4924300;28;45400;-58
2021/11/18 06:58:42;;;;;;;;;41.25;31.75;;;;;8.19;73.77;102841.44;4924845;28;45366;-58
2021/11/18 07:01:08;;;;;;;;;44.75;35.00;;;;;8.15;73.72;102844.16;4925027;28;45260;-58
2021/11/18 07:03:39;;;;;;;;;43.25;35.50;;;;;8.12;74.27;102845.91;4924302;28;45985;-58
2021/11/18 07:06:06;;;;;;;;;35.00;30.50;;;;;8.16;74.19;102843.28;4924293;28;45363;-59
2021/11/18 07:08:32;;;;;;;;;39.75;35.75;;;;;8.17;74.24;102850.25;4924399;28;45467;-58
2021/11/18 07:10:58;;;;;;;;;46.25;35.00;;;;;8.16;74.04;102845.91;4924607;28;45468;-58
2021/11/18 07:13:26;;;;;;;;;42.00;34.25;;;;;8.15;74.41;102852.91;4924422;28;45974;-58
2021/11/18 07:15:52;;;;;;;;;44.75;36.50;;;;;8.18;74.26;102851.97;4924543;28;45249;-58
2021/11/18 07:18:19;;;;;;;;;46.50;37.75;;;;;8.22;74.23;102853.69;4924466;28;45193;-58
2021/11/18 07:20:45;;;;;;;;;44.50;36.50;;;;;8.25;74.31;102851.00;4924340;28;45726;-58
2021/11/18 07:23:12;;;;;;;;;60.00;41.50;;;;;8.28;74.19;102848.31;4923965;28;45347;-58
2021/11/18 07:25:37;;;;;;;;;39.75;33.25;;;;;8.30;73.91;102855.28;4924039;28;45353;-58
2021/11/18 07:28:03;;;;;;;;;45.75;37.25;;;;;8.34;73.97;102848.22;4934667;28;45356;-58
2021/11/18 07:30:30;;;;;;;;;46.50;37.00;;;;;8.36;74.04;102849.09;4924511;28;45233;-58
2021/11/18 07:32:56;;;;;;;;;55.00;41.00;;;;;8.38;74.21;102845.56;4924138;28;46060;-58
2021/11/18 07:35:22;;;;;;;;;43.25;36.25;;;;;8.37;73.95;102838.59;4924404;28;45467;-58
2021/11/18 07:37:48;;;;;;;;;46.75;34.00;;;;;8.35;73.97;102847.34;4923989;28;45425;-58
2021/11/18 07:40:18;;;;;;;;;43.25;31.75;;;;;8.33;73.96;102847.34;4915197;28;45520;-58
2021/11/18 07:42:44;;;;;;;;;46.25;34.00;;;;;8.38;74.08;102839.44;4906973;28;46276;-58
2021/11/18 07:45:12;;;;;;;;;46.00;38.75;;;;;8.37;73.99;102842.94;4924132;28;45317;-58
2021/11/18 07:47:38;;;;;;;;;46.50;37.25;;;;;8.35;74.06;102850.84;4907247;28;45269;-58
2021/11/18 07:50:06;;;;;;;;;51.75;37.00;;;;;8.36;74.06;102842.06;4924092;28;45422;-58
2021/11/18 07:52:32;;;;;;;;;50.25;32.75;;;;;8.41;74.22;102843.78;4923588;28;46247;-58
2021/11/18 07:54:58;;;;;;;;;41.50;35.25;;;;;8.42;74.21;102841.13;4923801;28;45321;-58
2021/11/18 07:57:23;;;;;;;;;41.25;32.50;;;;;8.45;74.22;102848.94;4923855;28;45519;-57
2021/11/18 07:59:49;;;;;;;;;33.25;27.50;;;;;8.49;74.40;102847.13;4923913;28;45461;-58
2021/11/18 08:02:14;;;;;;;;;40.25;30.75;;;;;8.48;74.33;102854.16;4923466;28;45751;-59
2021/11/18 08:04:40;;;;;;;;;36.00;34.25;;;;;8.48;74.07;102855.91;4923774;28;45165;-58
2021/11/18 08:07:07;;;;;;;;;45.75;34.25;;;;;8.51;74.14;102867.22;4923582;28;45237;-58
2021/11/18 08:09:33;;;;;;;;;46.75;37.00;;;;;8.56;74.36;102872.41;4923488;28;45223;-58
2021/11/18 08:12:04;;;;;;;;;41.75;35.00;;;;;8.64;74.43;102879.28;4923394;28;46170;-58
2021/11/18 08:14:30;;;;;;;;;40.75;34.25;;;;;8.71;74.08;102873.91;4923612;28;45245;-58
2021/11/18 08:16:56;;;;;;;;;32.50;32.50;;;;;8.76;74.32;102869.44;4923790;28;45524;-58
2021/11/18 08:19:22;;;;;;;;;40.75;36.75;;;;;8.80;73.80;102871.13;4923776;28;45328;-58
2021/11/18 08:21:49;;;;;;;;;33.00;28.00;;;;;8.85;73.89;102864.03;4923022;28;45189;-57
2021/11/18 08:24:15;;;;;;;;;38.50;31.50;;;;;8.90;74.22;102870.91;4923365;28;45351;-58
2021/11/18 08:26:42;;;;;;;;;45.25;37.25;;;;;8.97;74.18;102871.69;4926689;28;45391;-58
2021/11/18 08:29:09;;;;;;;;;50.75;38.25;;;;;8.99;73.55;102872.50;4930888;28;45301;-58
2021/11/18 08:31:37;;;;;;;;;50.50;41.00;;;;;9.04;74.10;102875.94;4923094;28;46194;-58
2021/11/18 08:34:03;;;;;;;;;45.75;37.00;;;;;9.11;74.02;102864.41;4923304;28;45243;-58
2021/11/18 08:36:31;;;;;;;;;44.00;38.25;;;;;9.18;73.74;102858.13;4923129;28;45375;-58
2021/11/18 08:38:57;;;;;;;;;43.25;33.75;;;;;9.28;74.13;102864.06;4915489;28;45415;-58
2021/11/18 08:41:23;;;;;;;;;43.50;35.75;;;;;9.36;73.82;102877.94;4922118;28;45315;-58
2021/11/18 08:43:53;;;;;;;;;46.00;37.00;;;;;9.45;73.47;102882.16;4923203;28;45273;-58
2021/11/18 08:46:20;;;;;;;;;48.75;38.75;;;;;9.49;74.24;102882.06;4923255;28;45408;-58
2021/11/18 08:48:46;;;;;;;;;51.25;40.00;;;;;9.56;73.97;102885.44;4926112;28;45327;-57
2021/11/18 08:51:13;;;;;;;;;56.75;39.25;;;;;9.64;73.65;102883.53;4929236;28;45384;-57
2021/11/18 08:53:42;;;;;;;;;51.00;41.25;;;;;9.74;73.80;102885.03;4928919;28;45176;-58
2021/11/18 08:56:08;;;;;;;;;49.00;39.75;;;;;9.82;73.53;102887.50;4929667;28;45193;-58
2021/11/18 08:58:35;;;;;;;;;56.00;40.75;;;;;9.86;73.53;102888.31;4929635;28;45545;-58
2021/11/18 09:01:09;;;;;;;;;58.25;42.25;;;;;9.91;73.62;102889.94;4929496;28;46142;-58
2021/11/18 09:03:35;;;;;;;;;52.00;41.00;;;;;9.97;73.30;102889.81;4929207;28;45279;-58
2021/11/18 09:06:06;;;;;;;;;59.00;47.25;;;;;9.99;73.38;102893.28;4929419;28;45384;-58
2021/11/18 09:08:33;;;;;;;;;57.25;45.25;;;;;10.04;73.04;102888.78;4929234;28;45241;-58
2021/11/18 09:10:59;;;;;;;;;58.25;46.25;;;;;10.08;73.11;102884.28;4929387;28;45481;-57
2021/11/18 09:13:25;;;;;;;;;57.00;45.00;;;;;10.13;72.70;102892.09;4929110;28;45422;-57
2021/11/18 09:15:51;;;;;;;;;54.00;42.00;;;;;10.16;72.78;102894.66;4929312;28;45320;-58
2021/11/18 09:18:17;;;;;;;;;59.75;45.50;;;;;10.20;72.50;102891.94;4929005;28;45559;-57
2021/11/18 09:20:44;;;;;;;;;57.25;45.50;;;;;10.28;72.40;102899.69;4928679;28;45443;-58
2021/11/18 09:23:12;;;;;;;;;57.00;46.00;;;;;10.33;72.55;102895.16;4928569;28;45253;-58
2021/11/18 09:25:41;;;;;;;;;56.25;45.00;;;;;10.40;72.28;102890.59;4928859;28;45257;-58
2021/11/18 09:28:09;;;;;;;;;63.25;48.75;;;;;10.45;72.19;102897.50;4940000;28;45263;-59
2021/11/18 09:30:40;;;;;;;;;55.25;41.75;;;;;10.51;71.99;102897.38;4928753;28;45245;-60
2021/11/18 09:33:07;;;;;;;;;61.50;44.00;;;;;10.57;72.28;102899.81;4928752;28;45410;-59
2021/11/18 09:35:39;;;;;;;;;58.50;43.50;;;;;10.61;71.99;102904.13;4928946;28;45316;-59
2021/11/18 09:38:06;;;;;;;;;62.50;47.00;;;;;10.67;71.84;102915.44;4927428;28;45558;-59
2021/11/18 09:40:49;;;;;;;;;60.25;44.50;;;;;10.71;71.91;102912.66;4921106;28;45447;-59
2021/11/18 09:43:39;;;;;;;;;66.00;50.25;;;;;10.77;71.29;102901.13;4928546;28;45340;-59
2021/11/18 09:46:41;;;;;;;;;69.00;49.00;;;;;10.83;71.26;102901.81;4928825;28;45226;-59
2021/11/18 09:49:48;;;;;;;;;55.50;44.25;;;;;10.85;71.23;102901.78;4928654;28;45321;-59
2021/11/18 09:52:37;;;;;;;;;57.25;44.00;;;;;10.92;70.76;102910.41;4928296;28;45258;-58
2021/11/18 09:55:26;;;;;;;;;59.25;45.00;;;;;10.95;70.87;102910.31;4928488;28;45423;-58
2021/11/18 09:58:10;;;;;;;;;56.25;46.00;;;;;10.94;70.84;102906.81;4928664;28;45243;-57
2021/11/18 10:00:51;;;;;;;;;61.50;45.75;;;;;10.95;70.73;102908.53;4908574;28;45333;-58
2021/11/18 10:03:38;;;;;;;;;59.25;47.50;;;;;10.98;70.97;102911.13;4925490;28;46196;-58
2021/11/18 10:06:24;;;;;;;;;59.00;46.00;;;;;11.00;70.43;102913.72;4925495;28;45352;-58
2021/11/18 10:09:07;;;;;;;;;58.50;47.00;;;;;11.04;70.72;102918.84;4925451;28;45271;-58
2021/11/18 10:11:57;;;;;;;;;61.00;48.00;;;;;11.09;70.83;102918.72;4925659;28;45419;-59
2021/11/18 10:14:41;;;;;;;;;67.75;53.75;;;;;11.13;70.78;102921.22;4925552;28;45313;-58
2021/11/18 10:17:09;;;;;;;;;57.00;45.50;;;;;11.15;70.30;102935.28;4925306;28;45398;-58
2021/11/18 10:19:40;;;;;;;;;53.25;40.50;;;;;11.14;70.10;102930.03;4925308;28;45267;-57
2021/11/18 10:22:05;;;;;;;;;52.50;40.75;;;;;11.13;70.10;102937.06;4925053;28;45287;-58
2021/11/18 10:24:34;;;;;;;;;54.75;42.00;;;;;11.16;70.39;102937.00;4924970;28;45421;-58
2021/11/18 10:27:12;;;;;;;;;58.25;44.00;;;;;11.17;69.79;102937.88;4930765;28;45209;-58
2021/11/18 10:30:16;;;;;;;;;52.50;41.75;;;;;11.15;69.66;102940.53;4928479;28;45457;-58
2021/11/18 10:32:44;;;;;;;;;50.50;42.75;;;;;11.14;69.63;102937.97;4885159;29;45274;-58
2021/11/18 10:35:15;;;;;;;;;47.50;39.25;;;;;11.16;69.69;102941.41;4911757;28;45292;-58
2021/11/18 10:37:49;;;;;;;;;58.00;44.75;;;;;11.16;69.30;102942.28;4924952;28;45184;-59
2021/11/18 10:40:25;;;;;;;;;49.25;38.00;;;;;11.15;69.54;102939.69;4916425;28;45359;-59
2021/11/18 10:43:14;;;;;;;;;36.75;26.00;;;;;11.15;69.17;102944.97;4925035;28;45233;-62
2021/11/18 10:45:43;;;;;;;;;30.00;26.75;;;;;11.15;69.33;102951.09;4924760;28;45555;-59
2021/11/18 10:48:21;;;;;;;;;40.50;32.00;;;;;11.16;69.16;102937.00;4924956;28;45341;-58
2021/11/18 10:51:05;;;;;;;;;44.25;35.25;;;;;11.21;69.26;102939.50;4924657;28;45438;-59
2021/11/18 10:53:49;;;;;;;;;40.75;31.50;;;;;11.22;69.20;102935.09;4924838;28;45273;-59
2021/11/18 10:56:18;;;;;;;;;29.50;23.75;;;;;11.22;68.65;102943.91;4924672;28;45308;-59
2021/11/18 10:58:59;;;;;;;;;33.50;30.25;;;;;11.23;68.76;102939.47;4924620;28;45549;-58
2021/11/18 11:01:25;;;;;;;;;35.25;31.00;;;;;11.28;68.71;102942.84;4925018;28;45473;-59
2021/11/18 11:03:52;;;;;;;;;35.50;29.75;;;;;11.31;68.79;102933.09;4924659;28;45474;-58
2021/11/18 11:06:21;;;;;;;;;33.50;31.50;;;;;11.36;68.79;102938.22;4924380;28;45317;-58
2021/11/18 11:08:50;;;;;;;;;32.75;29.75;;;;;11.41;68.43;102939.84;4923846;28;45306;-58
2021/11/18 11:11:24;;;;;;;;;41.00;28.25;;;;;11.46;68.40;102939.72;4924267;28;45281;-58
2021/11/18 11:13:55;;;;;;;;;32.25;27.50;;;;;11.52;68.41;102939.53;4924504;28;45289;-58
2021/11/18 11:16:48;;;;;;;;;28.00;23.00;;;;;11.60;67.99;102928.75;4924304;28;46086;-59
2021/11/18 11:19:34;;;;;;;;;25.25;18.25;;;;;11.65;67.60;102925.06;4924136;28;45366;-58
2021/11/18 11:22:15;;;;;;;;;24.25;18.75;;;;;11.74;67.75;102921.31;4924413;28;45352;-58